Time;durP1;ratioP1;P1;durP2;ratioP2;P2;SDS_P1;SDS_P2;PMS_P1;PMS_P2;Temp;Humidity;BMP_temperature;BMP_pressure;BME280_temperature;BME280_humidity;BME280_pressure;Samples;Min_cycle;Max_cycle;Signal;HPM_P1;HPM_P2
2023/10/03 00:01:29;;;;;;;29.80;13.65;;;15.40;99.90;;;;;;5016037;28;20034;-44
2023/10/03 00:03:55;;;;;;;31.42;13.68;;;15.50;99.90;;;;;;5015819;28;20033;-45
2023/10/03 00:06:20;;;;;;;29.70;14.35;;;15.50;99.90;;;;;;5013728;28;20405;-46
2023/10/03 00:08:46;;;;;;;36.80;15.10;;;15.40;99.90;;;;;;5012956;28;20022;-44
2023/10/03 00:11:19;;;;;;;30.58;14.65;;;15.40;99.90;;;;;;5011287;28;20026;-43
2023/10/03 00:13:45;;;;;;;28.58;13.52;;;15.40;99.90;;;;;;5012677;28;20450;-48
2023/10/03 00:16:11;;;;;;;28.98;14.07;;;15.30;99.90;;;;;;5012128;28;20041;-44
2023/10/03 00:18:36;;;;;;;35.03;15.07;;;15.30;99.90;;;;;;5012539;28;20497;-47
2023/10/03 00:21:02;;;;;;;31.58;15.48;;;15.30;99.90;;;;;;5011240;28;20120;-47
2023/10/03 00:23:27;;;;;;;33.95;14.98;;;15.20;99.90;;;;;;5012405;28;20022;-46
2023/10/03 00:25:59;;;;;;;31.48;13.52;;;15.10;99.90;;;;;;5012151;28;20161;-44
2023/10/03 00:28:27;;;;;;;35.00;14.77;;;15.10;99.90;;;;;;5012523;28;20029;-45
2023/10/03 00:30:52;;;;;;;25.27;13.10;;;15.10;99.90;;;;;;5012283;28;20034;-44
2023/10/03 00:33:21;;;;;;;26.70;13.77;;;15.00;99.90;;;;;;5012039;28;20043;-44
2023/10/03 00:35:47;;;;;;;27.60;14.75;;;15.00;99.90;;;;;;5011738;28;20014;-44
2023/10/03 00:38:15;;;;;;;31.58;14.77;;;15.00;99.90;;;;;;5012329;28;20026;-44
2023/10/03 00:40:48;;;;;;;29.55;15.75;;;15.00;99.90;;;;;;5011982;28;20022;-46
2023/10/03 00:43:14;;;;;;;31.80;15.57;;;15.10;99.90;;;;;;5010682;28;20025;-47
2023/10/03 00:45:39;;;;;;;27.67;14.18;;;15.10;99.90;;;;;;5011828;28;20084;-47
2023/10/03 00:48:06;;;;;;;31.42;15.75;;;15.10;99.90;;;;;;5036203;23;20030;-46
2023/10/03 00:50:34;;;;;;;26.50;13.63;;;15.10;99.90;;;;;;5027909;28;20037;-48
2023/10/03 00:53:08;;;;;;;57.08;32.92;;;15.00;99.90;;;;;;5030809;28;20029;-48
2023/10/03 00:55:34;;;;;;;33.80;18.67;;;15.00;99.90;;;;;;5032073;28;20082;-47
2023/10/03 00:58:18;;;;;;;29.50;14.50;;;14.90;99.90;;;;;;5032440;28;20373;-47
2023/10/03 01:00:57;;;;;;;27.20;14.38;;;14.90;99.90;;;;;;5013060;28;20037;-48
2023/10/03 01:03:32;;;;;;;27.48;14.27;;;14.90;99.90;;;;;;5013225;28;20385;-50
2023/10/03 01:06:04;;;;;;;34.03;14.80;;;14.90;99.90;;;;;;5011575;28;20405;-51
2023/10/03 01:08:31;;;;;;;29.35;14.65;;;14.90;99.90;;;;;;5011225;28;20026;-48
2023/10/03 01:11:00;;;;;;;28.20;14.23;;;14.90;99.90;;;;;;5012261;28;20091;-51
2023/10/03 01:13:26;;;;;;;29.60;13.27;;;14.80;99.90;;;;;;5012381;28;20025;-47
2023/10/03 01:15:53;;;;;;;29.25;14.27;;;14.90;99.90;;;;;;5012236;28;20022;-45
2023/10/03 01:18:20;;;;;;;27.05;14.50;;;14.80;99.90;;;;;;5012011;28;20025;-49
2023/10/03 01:20:50;;;;;;;23.50;13.05;;;14.80;99.90;;;;;;5011871;28;20109;-49
2023/10/03 01:23:16;;;;;;;24.23;13.07;;;14.70;99.90;;;;;;5011731;28;20021;-47
2023/10/03 01:25:43;;;;;;;29.27;14.70;;;14.70;99.90;;;;;;5011590;28;20028;-46
2023/10/03 01:28:12;;;;;;;34.15;15.35;;;14.60;99.90;;;;;;5011805;28;20026;-47
2023/10/03 01:30:40;;;;;;;27.48;15.15;;;14.60;99.90;;;;;;5011892;28;20030;-50
2023/10/03 01:33:07;;;;;;;29.23;14.88;;;14.60;99.90;;;;;;5011577;28;20037;-47
2023/10/03 01:35:33;;;;;;;29.02;14.90;;;14.50;99.90;;;;;;5011239;28;20105;-47
2023/10/03 01:37:58;;;;;;;26.73;14.43;;;14.50;99.90;;;;;;5011688;28;20070;-48
2023/10/03 01:40:26;;;;;;;29.77;16.33;;;14.50;99.90;;;;;;5011657;28;20397;-46
2023/10/03 01:42:52;;;;;;;31.73;17.50;;;14.60;99.90;;;;;;5011534;28;20022;-48
2023/10/03 01:45:22;;;;;;;28.67;15.60;;;14.70;99.90;;;;;;5011562;28;20054;-47
2023/10/03 01:47:50;;;;;;;40.05;18.55;;;14.70;99.90;;;;;;5011806;28;20049;-47
2023/10/03 01:50:17;;;;;;;39.22;16.70;;;14.80;99.90;;;;;;5011685;28;20030;-48
2023/10/03 01:52:43;;;;;;;36.92;17.52;;;14.80;99.90;;;;;;5011957;28;20414;-49
2023/10/03 01:55:12;;;;;;;33.63;17.27;;;14.90;99.90;;;;;;5011165;28;20037;-48
2023/10/03 01:57:41;;;;;;;36.42;17.75;;;14.90;99.90;;;;;;5011506;28;20049;-49
2023/10/03 02:00:25;;;;;;;38.88;17.52;;;14.90;99.90;;;;;;5010956;28;20022;-49
2023/10/03 02:03:05;;;;;;;38.22;18.90;;;14.90;99.90;;;;;;5011512;28;20080;-48
2023/10/03 02:05:33;;;;;;;42.17;18.83;;;15.00;99.90;;;;;;5011424;28;20021;-46
2023/10/03 02:08:04;;;;;;;34.08;16.23;;;15.00;99.90;;;;;;5013500;28;20098;-49
2023/10/03 02:10:29;;;;;;;35.28;16.85;;;15.10;99.90;;;;;;5015226;28;20109;-47
2023/10/03 02:12:56;;;;;;;29.95;15.95;;;15.20;99.90;;;;;;5014896;28;20105;-49
2023/10/03 02:15:26;;;;;;;38.53;18.17;;;15.20;99.90;;;;;;5014964;28;20033;-47
2023/10/03 02:17:56;;;;;;;34.90;18.25;;;15.30;99.90;;;;;;5014957;28;20018;-49
2023/10/03 02:20:25;;;;;;;32.45;17.58;;;15.40;99.90;;;;;;5014790;28;20108;-46
2023/10/03 02:22:58;;;;;;;39.67;16.83;;;15.40;99.90;;;;;;5014810;28;20091;-48
2023/10/03 02:25:28;;;;;;;34.97;17.38;;;15.40;99.90;;;;;;5014710;28;20064;-50
2023/10/03 02:27:57;;;;;;;32.72;17.13;;;15.40;99.90;;;;;;5014583;28;20084;-48
2023/10/03 02:30:27;;;;;;;31.67;16.00;;;15.40;99.90;;;;;;5013138;28;20402;-48
2023/10/03 02:32:54;;;;;;;35.88;17.90;;;15.50;99.90;;;;;;5014377;28;20379;-46
2023/10/03 02:35:26;;;;;;;30.25;16.50;;;15.50;99.90;;;;;;5014114;28;20539;-48
2023/10/03 02:37:53;;;;;;;37.63;16.90;;;15.50;99.90;;;;;;5014697;28;20025;-46
2023/10/03 02:40:22;;;;;;;38.35;16.60;;;15.50;99.90;;;;;;5014476;28;20033;-48
2023/10/03 02:42:51;;;;;;;38.15;18.40;;;15.50;99.90;;;;;;5014402;28;20101;-48
2023/10/03 02:45:22;;;;;;;34.25;16.58;;;15.50;99.90;;;;;;5014240;28;20117;-47
2023/10/03 02:47:48;;;;;;;33.83;16.60;;;15.40;99.90;;;;;;5014637;28;20058;-47
2023/10/03 02:50:15;;;;;;;35.90;17.30;;;15.50;99.90;;;;;;5014019;28;20037;-47
2023/10/03 02:52:41;;;;;;;32.60;17.00;;;15.50;99.90;;;;;;5014232;28;20041;-53
2023/10/03 02:55:14;;;;;;;37.17;17.50;;;15.50;99.90;;;;;;5014048;28;20098;-48
2023/10/03 02:57:40;;;;;;;40.35;17.60;;;15.50;99.90;;;;;;5014390;28;20030;-49
2023/10/03 03:00:12;;;;;;;38.65;17.52;;;15.50;99.90;;;;;;5014016;28;20025;-49
2023/10/03 03:02:41;;;;;;;40.17;18.67;;;15.60;99.90;;;;;;5014384;28;20083;-49
2023/10/03 03:05:09;;;;;;;32.72;18.30;;;15.70;99.90;;;;;;5013867;28;20029;-49
2023/10/03 03:07:35;;;;;;;35.47;17.35;;;15.70;99.90;;;;;;5014013;28;20421;-50
2023/10/03 03:10:01;;;;;;;33.53;17.58;;;15.70;99.90;;;;;;5013774;28;20113;-47
2023/10/03 03:12:27;;;;;;;39.70;18.38;;;15.80;99.90;;;;;;5013988;28;20018;-48
2023/10/03 03:14:52;;;;;;;35.65;16.02;;;15.90;99.90;;;;;;5013733;28;20022;-46
2023/10/03 03:17:20;;;;;;;41.35;19.00;;;15.90;99.90;;;;;;5013766;28;20033;-46
2023/10/03 03:19:46;;;;;;;34.65;16.23;;;15.90;99.90;;;;;;5012438;28;20101;-45
2023/10/03 03:22:15;;;;;;;38.95;18.58;;;16.00;99.90;;;;;;5012711;28;20080;-47
2023/10/03 03:24:41;;;;;;;44.33;18.52;;;16.10;99.90;;;;;;5013549;28;20025;-47
2023/10/03 03:27:12;;;;;;;38.95;16.70;;;16.10;99.90;;;;;;5014024;28;20075;-48
2023/10/03 03:29:54;;;;;;;38.30;17.92;;;16.10;99.90;;;;;;5013460;28;20383;-49
2023/10/03 03:32:19;;;;;;;39.45;17.27;;;16.10;99.90;;;;;;5013390;28;20245;-48
2023/10/03 03:34:45;;;;;;;40.38;17.63;;;16.00;99.90;;;;;;5013026;28;20075;-47
2023/10/03 03:37:44;;;;;;;37.50;18.25;;;16.00;99.90;;;;;;5013362;28;20018;-48
2023/10/03 03:40:11;;;;;;;37.28;17.40;;;16.00;99.90;;;;;;5011609;28;20559;-48
2023/10/03 03:42:37;;;;;;;37.70;18.85;;;16.00;99.90;;;;;;5011920;28;20030;-46
2023/10/03 03:45:04;;;;;;;40.72;18.65;;;16.10;99.90;;;;;;5012872;28;20022;-51
2023/10/03 03:47:31;;;;;;;45.22;18.10;;;16.10;99.90;;;;;;5013192;28;20022;-49
2023/10/03 03:49:58;;;;;;;41.63;19.55;;;16.10;99.90;;;;;;5012998;28;20042;-47
2023/10/03 03:52:25;;;;;;;37.20;18.60;;;16.20;99.90;;;;;;5011710;28;20022;-47
2023/10/03 03:54:50;;;;;;;39.60;18.38;;;16.30;99.90;;;;;;5012633;28;20087;-47
2023/10/03 03:57:16;;;;;;;38.72;19.15;;;16.30;99.90;;;;;;5013129;28;20030;-49
2023/10/03 03:59:42;;;;;;;42.33;19.35;;;16.40;99.90;;;;;;5012866;28;20461;-47
2023/10/03 04:02:09;;;;;;;40.95;18.17;;;16.40;99.90;;;;;;5012758;28;20037;-51
2023/10/03 04:04:34;;;;;;;41.00;17.20;;;16.40;99.90;;;;;;5012572;28;20098;-48
2023/10/03 04:07:00;;;;;;;39.35;17.45;;;16.50;99.90;;;;;;5013027;28;20099;-49
2023/10/03 04:09:25;;;;;;;32.50;16.88;;;16.50;99.90;;;;;;5012444;28;20088;-47
2023/10/03 04:11:52;;;;;;;40.45;18.05;;;16.50;99.90;;;;;;5012793;28;20030;-51
2023/10/03 04:14:17;;;;;;;39.05;17.65;;;16.50;99.90;;;;;;5012274;28;20018;-50
2023/10/03 04:16:43;;;;;;;46.90;19.00;;;16.50;99.90;;;;;;5012450;28;20397;-51
2023/10/03 04:19:10;;;;;;;41.30;17.40;;;16.50;99.90;;;;;;5012552;28;20037;-47
2023/10/03 04:21:36;;;;;;;38.00;18.27;;;16.50;99.90;;;;;;5012595;28;20026;-48
2023/10/03 04:24:02;;;;;;;37.58;17.85;;;16.60;99.90;;;;;;5012431;28;20032;-45
2023/10/03 04:26:28;;;;;;;40.22;19.67;;;16.60;99.90;;;;;;5012367;28;20030;-48
2023/10/03 04:28:54;;;;;;;38.47;18.17;;;16.60;99.90;;;;;;5012485;28;20030;-47
2023/10/03 04:31:20;;;;;;;44.13;17.88;;;16.70;99.90;;;;;;5012062;28;20405;-49
2023/10/03 04:33:45;;;;;;;39.17;17.20;;;16.80;99.90;;;;;;5012206;28;20030;-48
2023/10/03 04:36:12;;;;;;;36.03;18.50;;;16.80;99.90;;;;;;5012047;28;20028;-46
2023/10/03 04:38:40;;;;;;;42.20;19.08;;;16.90;99.90;;;;;;5012110;28;20394;-47
2023/10/03 04:41:09;;;;;;;40.38;18.35;;;16.90;99.90;;;;;;5012353;28;20029;-46
2023/10/03 04:43:34;;;;;;;38.97;18.25;;;16.90;99.90;;;;;;5012047;28;20029;-47
2023/10/03 04:46:01;;;;;;;43.15;18.92;;;16.90;99.90;;;;;;5012075;28;20044;-46
2023/10/03 04:48:28;;;;;;;35.55;17.60;;;17.00;99.90;;;;;;5012092;28;20437;-49
2023/10/03 04:50:54;;;;;;;42.85;17.67;;;17.00;99.90;;;;;;5011798;28;20064;-48
2023/10/03 04:53:19;;;;;;;34.28;17.33;;;17.00;99.90;;;;;;5012234;28;20104;-46
2023/10/03 04:55:48;;;;;;;36.28;17.67;;;17.10;99.90;;;;;;5012051;28;20033;-46
2023/10/03 04:58:14;;;;;;;33.67;18.38;;;17.10;99.90;;;;;;5012140;28;20075;-48
2023/10/03 05:00:40;;;;;;;33.22;16.98;;;17.10;99.90;;;;;;5010779;28;20548;-51
2023/10/03 05:03:09;;;;;;;35.55;17.25;;;17.10;99.90;;;;;;5010558;28;20030;-48
2023/10/03 05:05:35;;;;;;;36.90;16.85;;;17.10;99.90;;;;;;5011863;28;20022;-47
2023/10/03 05:08:01;;;;;;;38.28;17.73;;;17.10;99.90;;;;;;5012103;28;20032;-48
2023/10/03 05:10:30;;;;;;;34.70;17.25;;;17.10;99.90;;;;;;5012243;28;20026;-47
2023/10/03 05:12:57;;;;;;;35.58;17.55;;;17.10;99.90;;;;;;5011683;28;20018;-46
2023/10/03 05:15:23;;;;;;;35.00;16.73;;;17.10;99.90;;;;;;5011750;28;20021;-45
2023/10/03 05:17:49;;;;;;;37.90;17.02;;;17.20;99.90;;;;;;5012137;28;20033;-47
2023/10/03 05:20:17;;;;;;;38.90;17.00;;;17.20;99.90;;;;;;5011879;28;20034;-48
2023/10/03 05:22:45;;;;;;;33.40;16.35;;;17.10;99.90;;;;;;5012368;28;20030;-50
2023/10/03 05:25:12;;;;;;;34.08;16.55;;;17.10;99.90;;;;;;5011287;28;20096;-50
2023/10/03 05:27:41;;;;;;;31.55;16.25;;;17.10;99.90;;;;;;5011814;28;20076;-46
2023/10/03 05:30:08;;;;;;;34.42;16.50;;;17.10;99.90;;;;;;5011533;28;20389;-47
2023/10/03 05:32:38;;;;;;;37.80;17.42;;;17.10;99.90;;;;;;5011592;28;20022;-49
2023/10/03 05:35:05;;;;;;;37.22;15.43;;;17.10;99.90;;;;;;5011503;28;20105;-46
2023/10/03 05:37:33;;;;;;;38.10;16.58;;;17.10;99.90;;;;;;5012013;28;20033;-46
2023/10/03 05:39:59;;;;;;;32.65;15.77;;;17.10;99.90;;;;;;5011523;28;20028;-48
2023/10/03 05:42:26;;;;;;;27.85;14.70;;;17.10;99.90;;;;;;5012904;28;20053;-46
2023/10/03 05:44:53;;;;;;;37.08;16.90;;;17.10;99.90;;;;;;5015204;28;20030;-46
2023/10/03 05:47:20;;;;;;;29.77;15.32;;;17.10;99.90;;;;;;5015403;28;20022;-48
2023/10/03 05:49:45;;;;;;;29.70;15.77;;;17.10;99.90;;;;;;5015485;28;20507;-47
2023/10/03 05:52:12;;;;;;;39.30;16.30;;;17.10;99.90;;;;;;5015318;28;20026;-46
2023/10/03 05:54:37;;;;;;;32.03;15.80;;;17.10;99.90;;;;;;5013791;28;20021;-45
2023/10/03 05:57:03;;;;;;;29.90;15.93;;;17.20;99.90;;;;;;5015264;28;20037;-48
2023/10/03 05:59:29;;;;;;;42.17;16.15;;;17.20;99.90;;;;;;5014996;28;20393;-50
2023/10/03 06:01:57;;;;;;;28.40;14.18;;;17.30;99.90;;;;;;5014877;28;20022;-45
2023/10/03 06:04:23;;;;;;;31.25;16.13;;;17.30;99.90;;;;;;5014675;28;20075;-47
2023/10/03 06:06:49;;;;;;;29.65;14.48;;;17.40;99.90;;;;;;5015103;28;20026;-45
2023/10/03 06:09:15;;;;;;;35.13;16.88;;;17.40;99.90;;;;;;5014922;28;20029;-46
2023/10/03 06:11:42;;;;;;;33.13;14.88;;;17.50;99.90;;;;;;5014870;28;20659;-46
2023/10/03 06:14:08;;;;;;;30.23;15.75;;;17.50;99.90;;;;;;5014823;28;20050;-46
2023/10/03 06:16:36;;;;;;;29.35;15.77;;;17.60;99.90;;;;;;5015042;28;20022;-47
2023/10/03 06:19:01;;;;;;;29.58;14.15;;;17.60;99.90;;;;;;5014978;28;20392;-49
2023/10/03 06:21:27;;;;;;;30.08;14.07;;;17.70;99.90;;;;;;5015082;28;20112;-49
2023/10/03 06:23:53;;;;;;;28.67;14.43;;;17.70;99.90;;;;;;5014637;28;20030;-49
2023/10/03 06:26:19;;;;;;;39.00;15.63;;;17.80;99.90;;;;;;5014430;28;20065;-45
2023/10/03 06:28:48;;;;;;;35.58;14.75;;;17.80;99.90;;;;;;5014517;28;20053;-45
2023/10/03 06:31:14;;;;;;;30.63;15.80;;;17.80;99.90;;;;;;5014376;28;20022;-47
2023/10/03 06:33:42;;;;;;;31.05;15.27;;;17.90;99.90;;;;;;5014647;28;20104;-47
2023/10/03 06:36:08;;;;;;;30.48;15.02;;;17.90;99.90;;;;;;5013741;28;20048;-48
2023/10/03 06:38:36;;;;;;;30.77;14.65;;;17.90;99.90;;;;;;5014585;28;20030;-50
2023/10/03 06:41:03;;;;;;;27.98;14.90;;;17.90;99.90;;;;;;5014407;28;20104;-47
2023/10/03 06:43:28;;;;;;;31.02;14.20;;;18.00;99.90;;;;;;4996774;28;20025;-49
2023/10/03 06:45:54;;;;;;;30.15;14.73;;;18.10;99.90;;;;;;5014130;28;20040;-50
2023/10/03 06:48:21;;;;;;;26.92;13.00;;;18.20;99.90;;;;;;5014360;28;20040;-50
2023/10/03 06:50:48;;;;;;;30.40;14.07;;;18.30;99.90;;;;;;5036341;22;20049;-51
2023/10/03 06:53:13;;;;;;;26.92;14.02;;;18.40;99.90;;;;;;5013682;28;20060;-47
2023/10/03 06:55:39;;;;;;;26.10;12.57;;;18.60;99.90;;;;;;5012938;28;20482;-48
2023/10/03 06:58:05;;;;;;;24.27;11.90;;;18.80;99.90;;;;;;5015309;28;20033;-50
2023/10/03 07:00:32;;;;;;;22.45;12.10;;;18.90;99.90;;;;;;5014084;28;20153;-46
2023/10/03 07:02:58;;;;;;;24.77;13.20;;;18.90;99.90;;;;;;5014344;28;20109;-47
2023/10/03 07:05:24;;;;;;;24.45;11.90;;;18.80;99.90;;;;;;5013907;28;20472;-44
2023/10/03 07:07:49;;;;;;;23.50;12.98;;;18.80;99.90;;;;;;5013986;28;20101;-51
2023/10/03 07:10:15;;;;;;;27.23;11.93;;;18.90;99.90;;;;;;5013726;28;20371;-43
2023/10/03 07:12:41;;;;;;;20.52;11.63;;;18.60;99.90;;;;;;5012531;28;20058;-47
2023/10/03 07:15:11;;;;;;;23.25;12.45;;;18.60;99.90;;;;;;5013766;28;20492;-51
2023/10/03 07:17:37;;;;;;;19.00;10.85;;;18.60;99.90;;;;;;5014081;28;20014;-46
2023/10/03 07:20:05;;;;;;;23.85;11.23;;;18.70;99.90;;;;;;5013849;28;20114;-47
2023/10/03 07:22:31;;;;;;;21.80;11.35;;;18.70;99.90;;;;;;5013672;28;20109;-47
2023/10/03 07:24:57;;;;;;;20.60;11.20;;;18.80;99.90;;;;;;5013649;28;20108;-46
2023/10/03 07:27:23;;;;;;;22.65;10.43;;;18.80;99.90;;;;;;5013794;28;20133;-50
2023/10/03 07:29:48;;;;;;;20.98;10.30;;;18.90;99.90;;;;;;5012097;28;20034;-44
2023/10/03 07:32:14;;;;;;;16.42;9.40;;;19.00;99.90;;;;;;5012147;28;20026;-46
2023/10/03 07:34:43;;;;;;;19.77;10.15;;;19.10;99.90;;;;;;5012505;28;20018;-45
2023/10/03 07:37:12;;;;;;;21.50;9.63;;;19.10;99.90;;;;;;5013437;28;20049;-48
2023/10/03 07:39:39;;;;;;;18.20;8.57;;;19.10;99.90;;;;;;5013537;28;20022;-46
2023/10/03 07:42:05;;;;;;;20.38;10.23;;;19.20;99.90;;;;;;5012168;28;20026;-50
2023/10/03 07:44:31;;;;;;;20.35;9.77;;;19.40;99.90;;;;;;5013173;28;20068;-51
2023/10/03 07:46:57;;;;;;;21.75;9.73;;;19.30;99.90;;;;;;5013041;28;20021;-52
2023/10/03 07:49:22;;;;;;;16.38;8.93;;;19.30;99.90;;;;;;5013068;28;20026;-46
2023/10/03 07:51:50;;;;;;;16.42;8.90;;;19.40;99.90;;;;;;5013060;28;20033;-48
2023/10/03 07:54:19;;;;;;;16.42;8.45;;;19.40;99.90;;;;;;5012653;28;20014;-51
2023/10/03 07:56:44;;;;;;;17.65;8.88;;;19.40;99.90;;;;;;5012954;28;20022;-47
2023/10/03 07:59:10;;;;;;;17.17;8.95;;;19.50;99.90;;;;;;5012987;28;20159;-46
2023/10/03 08:01:38;;;;;;;14.43;8.45;;;19.50;99.90;;;;;;5012750;28;20049;-48
2023/10/03 08:04:12;;;;;;;21.00;8.32;;;19.60;99.90;;;;;;5012747;28;20034;-46
2023/10/03 08:06:39;;;;;;;16.85;8.05;;;19.70;99.90;;;;;;5012622;28;20403;-46
2023/10/03 08:09:08;;;;;;;11.73;7.45;;;19.80;99.90;;;;;;5012787;28;20378;-48
2023/10/03 08:11:35;;;;;;;14.05;6.97;;;19.80;99.90;;;;;;5012643;28;20444;-48
2023/10/03 08:14:16;;;;;;;12.93;7.00;;;19.90;99.90;;;;;;5012725;28;20117;-46
2023/10/03 08:16:42;;;;;;;12.13;6.53;;;20.00;99.90;;;;;;5012563;28;20069;-45
2023/10/03 08:19:08;;;;;;;17.13;7.63;;;20.10;99.90;;;;;;5012621;28;20025;-47
2023/10/03 08:21:35;;;;;;;17.27;6.97;;;20.20;99.90;;;;;;5012620;28;20392;-51
2023/10/03 08:24:09;;;;;;;12.43;7.28;;;20.30;99.90;;;;;;5012702;28;20397;-49
2023/10/03 08:26:36;;;;;;;14.65;6.43;;;20.50;99.90;;;;;;5013678;28;20022;-47
2023/10/03 08:29:04;;;;;;;10.45;6.50;;;20.60;99.90;;;;;;5012887;28;20030;-47
2023/10/03 08:31:31;;;;;;;11.57;6.35;;;20.70;99.90;;;;;;5012660;28;20026;-47
2023/10/03 08:33:56;;;;;;;10.45;6.13;;;20.80;99.90;;;;;;5012739;28;20466;-44
2023/10/03 08:36:23;;;;;;;8.82;6.18;;;20.90;99.90;;;;;;5012612;28;20030;-48
2023/10/03 08:38:49;;;;;;;12.18;6.10;;;21.00;99.90;;;;;;5012588;28;20037;-49
2023/10/03 08:41:25;;;;;;;11.23;5.78;;;21.10;99.90;;;;;;5012574;28;20112;-45
2023/10/03 08:43:54;;;;;;;10.45;5.70;;;21.20;99.90;;;;;;5012676;28;20359;-48
2023/10/03 08:46:24;;;;;;;8.43;5.53;;;21.40;99.90;;;;;;5012424;28;20063;-48
2023/10/03 08:48:50;;;;;;;11.15;6.05;;;21.40;99.90;;;;;;5011066;28;20037;-48
2023/10/03 08:51:17;;;;;;;11.15;6.07;;;21.40;99.90;;;;;;5012216;28;20116;-50
2023/10/03 08:53:47;;;;;;;8.05;4.82;;;21.40;99.90;;;;;;5011920;28;20018;-51
2023/10/03 08:56:18;;;;;;;8.40;6.15;;;21.40;99.90;;;;;;5011657;28;20026;-51
2023/10/03 08:58:48;;;;;;;8.75;5.30;;;21.50;99.90;;;;;;5011795;28;20026;-48
2023/10/03 09:01:17;;;;;;;8.82;5.68;;;21.60;99.90;;;;;;5012174;28;20037;-49
2023/10/03 09:03:51;;;;;;;10.02;5.68;;;21.50;99.90;;;;;;5010430;28;20482;-51
2023/10/03 09:06:20;;;;;;;14.43;5.78;;;21.60;99.90;;;;;;5011854;28;20040;-46
2023/10/03 09:08:50;;;;;;;11.13;5.15;;;21.60;99.90;;;;;;5012050;28;20104;-49
2023/10/03 09:11:18;;;;;;;12.73;5.53;;;21.60;99.90;;;;;;5011783;28;20022;-49
2023/10/03 09:13:47;;;;;;;10.93;5.10;;;21.70;99.90;;;;;;5012195;28;20030;-48
2023/10/03 09:16:15;;;;;;;13.15;5.72;;;21.70;99.90;;;;;;5011679;28;20026;-47
2023/10/03 09:18:41;;;;;;;8.32;5.90;;;21.80;99.90;;;;;;5011801;28;20022;-51
2023/10/03 09:21:23;;;;;;;14.25;5.93;;;21.80;99.90;;;;;;5011703;28;20034;-50
2023/10/03 09:24:09;;;;;;;7.93;5.15;;;21.80;99.90;;;;;;5011721;28;20107;-47
2023/10/03 09:26:46;;;;;;;14.48;5.60;;;21.90;99.90;;;;;;5011645;28;20057;-49
2023/10/03 09:29:29;;;;;;;12.80;5.65;;;21.80;99.90;;;;;;5011867;28;20040;-48
2023/10/03 09:31:57;;;;;;;10.18;5.57;;;21.90;99.90;;;;;;5011313;28;20053;-48
2023/10/03 09:34:23;;;;;;;8.05;6.00;;;21.90;99.90;;;;;;5010123;28;20222;-50
2023/10/03 09:36:48;;;;;;;8.90;5.78;;;21.90;99.90;;;;;;5011791;28;20030;-51
2023/10/03 09:39:21;;;;;;;10.32;5.80;;;21.90;99.90;;;;;;5010553;28;20160;-46
2023/10/03 09:41:57;;;;;;;9.73;5.90;;;21.90;99.90;;;;;;5011800;28;20398;-46
2023/10/03 09:44:32;;;;;;;8.45;5.57;;;21.90;99.90;;;;;;5011734;28;20079;-47
2023/10/03 09:47:04;;;;;;;11.30;5.35;;;21.80;99.90;;;;;;5011691;28;20030;-48
2023/10/03 09:49:38;;;;;;;10.98;5.82;;;21.80;99.90;;;;;;5011455;28;20037;-48
2023/10/03 09:52:33;;;;;;;8.43;6.15;;;21.70;99.90;;;;;;5011540;28;20107;-52
2023/10/03 09:55:03;;;;;;;14.80;5.53;;;21.70;99.90;;;;;;5011734;28;20026;-47
2023/10/03 09:57:29;;;;;;;8.60;5.90;;;21.70;99.90;;;;;;5011825;28;20374;-48
2023/10/03 09:59:55;;;;;;;8.00;5.43;;;21.70;99.90;;;;;;5010761;28;20028;-46
2023/10/03 10:02:37;;;;;;;8.75;5.65;;;21.70;99.90;;;;;;5011925;28;20366;-47
2023/10/03 10:05:20;;;;;;;11.25;6.63;;;21.70;99.90;;;;;;5011390;28;20021;-46
2023/10/03 10:08:08;;;;;;;9.02;5.95;;;21.70;99.90;;;;;;5011783;28;20071;-48
2023/10/03 10:10:35;;;;;;;14.32;6.00;;;21.70;99.90;;;;;;5011509;28;20026;-50
2023/10/03 10:13:20;;;;;;;9.50;5.95;;;21.80;99.90;;;;;;5011752;28;20018;-47
2023/10/03 10:16:01;;;;;;;6.72;5.68;;;21.90;99.90;;;;;;5011428;28;20541;-48
2023/10/03 10:18:45;;;;;;;10.65;6.05;;;21.90;99.90;;;;;;5011282;28;20018;-48
2023/10/03 10:21:20;;;;;;;8.52;5.50;;;21.90;99.90;;;;;;5009728;28;20026;-51
2023/10/03 10:24:16;;;;;;;12.48;6.10;;;21.90;99.90;;;;;;5009699;28;20496;-45
2023/10/03 10:26:48;;;;;;;10.52;6.50;;;22.00;99.90;;;;;;5011048;28;20037;-50
2023/10/03 10:29:19;;;;;;;9.95;6.15;;;22.00;99.90;;;;;;5013547;28;20022;-49
2023/10/03 10:31:49;;;;;;;14.02;6.50;;;22.00;99.90;;;;;;5014466;28;20054;-49
2023/10/03 10:34:21;;;;;;;7.57;5.80;;;22.00;99.90;;;;;;5014272;28;20549;-48
2023/10/03 10:37:09;;;;;;;15.65;6.75;;;22.30;99.90;;;;;;5014364;28;20369;-49
2023/10/03 10:39:56;;;;;;;20.88;6.78;;;22.20;99.90;;;;;;5013799;28;20072;-49
2023/10/03 10:42:25;;;;;;;11.45;5.80;;;22.20;99.90;;;;;;5014265;28;20032;-46
2023/10/03 10:45:03;;;;;;;9.65;5.53;;;22.20;99.90;;;;;;5014100;28;20026;-46
2023/10/03 10:47:31;;;;;;;11.38;6.63;;;22.30;99.90;;;;;;5014219;28;20164;-47
2023/10/03 10:49:58;;;;;;;8.15;5.38;;;22.50;99.90;;;;;;5014123;28;20033;-46
2023/10/03 10:52:24;;;;;;;10.00;5.90;;;22.60;99.90;;;;;;5013103;28;20033;-48
2023/10/03 10:54:49;;;;;;;14.27;6.18;;;22.60;99.90;;;;;;5013858;28;20398;-47
2023/10/03 10:57:15;;;;;;;9.75;5.57;;;22.70;99.90;;;;;;5014306;28;20305;-46
2023/10/03 10:59:43;;;;;;;8.95;5.78;;;22.70;99.90;;;;;;5013922;28;20029;-48
2023/10/03 11:02:18;;;;;;;10.23;5.50;;;22.70;99.90;;;;;;5014016;28;20022;-48
2023/10/03 11:04:44;;;;;;;12.60;5.68;;;22.70;99.90;;;;;;5013663;28;20393;-51
2023/10/03 11:07:10;;;;;;;18.33;12.65;;;22.60;99.90;;;;;;5014078;28;20025;-50
2023/10/03 11:09:37;;;;;;;12.05;6.03;;;22.60;99.90;;;;;;5013873;28;20565;-47
2023/10/03 11:12:06;;;;;;;15.38;6.18;;;22.60;99.90;;;;;;5013573;28;20492;-47
2023/10/03 11:14:33;;;;;;;10.15;5.78;;;22.50;99.90;;;;;;5013371;28;20325;-47
2023/10/03 11:17:00;;;;;;;9.85;5.45;;;22.60;99.90;;;;;;5013814;28;20059;-48
2023/10/03 11:19:27;;;;;;;14.10;7.47;;;22.60;99.90;;;;;;5013662;28;20091;-50
2023/10/03 11:21:53;;;;;;;10.50;5.47;;;22.70;99.90;;;;;;5013610;28;20026;-46
2023/10/03 11:24:20;;;;;;;8.18;5.60;;;22.80;99.90;;;;;;5013238;28;20109;-51
2023/10/03 11:26:53;;;;;;;10.65;6.10;;;22.80;99.90;;;;;;5013509;28;20390;-51
2023/10/03 11:29:36;;;;;;;8.27;5.63;;;22.70;99.90;;;;;;5013397;28;20026;-47
2023/10/03 11:32:03;;;;;;;7.25;5.18;;;22.60;99.90;;;;;;5012261;28;20109;-44
2023/10/03 11:34:31;;;;;;;9.55;6.25;;;22.60;99.90;;;;;;5013006;28;20025;-48
2023/10/03 11:36:58;;;;;;;8.07;6.22;;;22.50;99.90;;;;;;5013453;28;20109;-47
2023/10/03 11:39:23;;;;;;;13.52;6.32;;;22.60;99.90;;;;;;5012331;28;20026;-47
2023/10/03 11:41:49;;;;;;;11.30;5.72;;;22.60;99.90;;;;;;5012097;28;20482;-53
2023/10/03 11:44:22;;;;;;;10.77;5.72;;;22.60;99.90;;;;;;5013238;28;20161;-47
2023/10/03 11:46:48;;;;;;;8.30;5.47;;;22.70;99.90;;;;;;5013430;28;20401;-50
2023/10/03 11:49:15;;;;;;;8.98;5.30;;;22.90;99.90;;;;;;5013311;28;20053;-48
2023/10/03 11:51:44;;;;;;;9.93;4.68;;;23.20;99.90;;;;;;5013339;28;20025;-50
2023/10/03 11:54:15;;;;;;;11.55;5.70;;;23.50;99.90;;;;;;5013644;28;20036;-45
2023/10/03 11:56:45;;;;;;;12.02;5.53;;;23.60;99.90;;;;;;5013559;28;20026;-49
2023/10/03 11:59:15;;;;;;;13.20;5.50;;;23.70;99.90;;;;;;5013417;28;20029;-48
2023/10/03 12:01:42;;;;;;;14.30;5.65;;;23.70;99.90;;;;;;5013642;28;20026;-47
2023/10/03 12:04:08;;;;;;;12.77;5.32;;;23.60;99.90;;;;;;5012625;28;20061;-50
2023/10/03 12:06:34;;;;;;;9.40;3.72;;;23.50;99.90;;;;;;5012820;28;20497;-48
2023/10/03 12:08:59;;;;;;;13.88;5.10;;;23.40;99.90;;;;;;5011839;28;20030;-50
2023/10/03 12:11:25;;;;;;;7.75;4.53;;;23.40;99.90;;;;;;5012358;28;20528;-50
2023/10/03 12:13:50;;;;;;;5.63;4.28;;;23.40;99.90;;;;;;5008228;28;20029;-46
2023/10/03 12:16:17;;;;;;;6.50;4.15;;;23.30;99.90;;;;;;5010092;28;20095;-50
2023/10/03 12:18:42;;;;;;;8.82;4.10;;;23.40;99.90;;;;;;5010512;28;20062;-53
2023/10/03 12:21:09;;;;;;;11.40;3.95;;;23.40;99.90;;;;;;5010440;28;20152;-50
2023/10/03 12:23:36;;;;;;;6.93;3.67;;;23.40;99.90;;;;;;5011867;28;20018;-44
2023/10/03 12:26:01;;;;;;;9.45;4.90;;;23.40;99.90;;;;;;5010622;28;20442;-48
2023/10/03 12:28:27;;;;;;;12.73;3.63;;;23.50;99.90;;;;;;5011110;28;20049;-50
2023/10/03 12:30:53;;;;;;;9.60;3.35;;;23.50;99.90;;;;;;5012232;28;20026;-44
2023/10/03 12:33:19;;;;;;;5.25;3.70;;;23.40;99.90;;;;;;5012451;28;20105;-50
2023/10/03 12:35:46;;;;;;;5.80;3.55;;;23.40;99.90;;;;;;5012270;28;20033;-45
2023/10/03 12:38:11;;;;;;;7.20;4.00;;;23.30;99.90;;;;;;5011247;28;20025;-49
2023/10/03 12:40:37;;;;;;;5.78;3.53;;;23.30;99.90;;;;;;5011256;28;20137;-47